sensor_id;sensor_type;location;lat;lon;timestamp;P1;durP1;ratioP1;P2;durP2;ratioP2
33786;SDS011;29742;51.540;9.358;2023-03-11T00:00:25;0.10;;;0.10;;
33786;SDS011;29742;51.540;9.358;2023-03-11T00:05:27;0.05;;;0.05;;
33786;SDS011;29742;51.540;9.358;2023-03-11T00:10:39;0.00;;;0.00;;
33786;SDS011;29742;51.540;9.358;2023-03-11T00:15:41;0.00;;;0.00;;
33786;SDS011;29742;51.540;9.358;2023-03-11T00:20:44;0.08;;;0.08;;
33786;SDS011;29742;51.540;9.358;2023-03-11T00:25:46;0.00;;;0.00;;
33786;SDS011;29742;51.540;9.358;2023-03-11T00:30:46;0.00;;;0.00;;
33786;SDS011;29742;51.540;9.358;2023-03-11T00:35:48;0.00;;;0.00;;
33786;SDS011;29742;51.540;9.358;2023-03-11T00:40:48;0.00;;;0.00;;
33786;SDS011;29742;51.540;9.358;2023-03-11T00:45:49;0.10;;;0.10;;
33786;SDS011;29742;51.540;9.358;2023-03-11T00:50:49;0.00;;;0.00;;
33786;SDS011;29742;51.540;9.358;2023-03-11T00:55:50;0.00;;;0.00;;
33786;SDS011;29742;51.540;9.358;2023-03-11T01:00:51;0.00;;;0.00;;
33786;SDS011;29742;51.540;9.358;2023-03-11T01:05:51;0.00;;;0.00;;
33786;SDS011;29742;51.540;9.358;2023-03-11T01:10:52;0.10;;;0.00;;
33786;SDS011;29742;51.540;9.358;2023-03-11T01:15:53;0.00;;;0.00;;
33786;SDS011;29742;51.540;9.358;2023-03-11T01:20:53;0.10;;;0.00;;
33786;SDS011;29742;51.540;9.358;2023-03-11T01:25:54;0.20;;;0.10;;
33786;SDS011;29742;51.540;9.358;2023-03-11T01:30:54;0.00;;;0.00;;
33786;SDS011;29742;51.540;9.358;2023-03-11T01:35:54;0.05;;;0.00;;
33786;SDS011;29742;51.540;9.358;2023-03-11T01:40:55;0.00;;;0.00;;
33786;SDS011;29742;51.540;9.358;2023-03-11T01:50:55;0.10;;;0.00;;
33786;SDS011;29742;51.540;9.358;2023-03-11T01:55:56;0.00;;;0.00;;
33786;SDS011;29742;51.540;9.358;2023-03-11T02:00:56;0.00;;;0.00;;
33786;SDS011;29742;51.540;9.358;2023-03-11T02:06:00;0.10;;;0.10;;
33786;SDS011;29742;51.540;9.358;2023-03-11T02:11:02;0.00;;;0.00;;
33786;SDS011;29742;51.540;9.358;2023-03-11T02:16:04;0.00;;;0.00;;
33786;SDS011;29742;51.540;9.358;2023-03-11T02:26:31;0.00;;;0.00;;
33786;SDS011;29742;51.540;9.358;2023-03-11T02:31:36;0.10;;;0.10;;
33786;SDS011;29742;51.540;9.358;2023-03-11T02:36:38;0.00;;;0.00;;
33786;SDS011;29742;51.540;9.358;2023-03-11T02:41:41;0.40;;;0.00;;
33786;SDS011;29742;51.540;9.358;2023-03-11T02:46:43;0.00;;;0.00;;
33786;SDS011;29742;51.540;9.358;2023-03-11T02:51:44;0.00;;;0.00;;
33786;SDS011;29742;51.540;9.358;2023-03-11T02:56:44;0.00;;;0.00;;
33786;SDS011;29742;51.540;9.358;2023-03-11T03:01:45;0.25;;;0.10;;
33786;SDS011;29742;51.540;9.358;2023-03-11T03:06:45;0.15;;;0.03;;
33786;SDS011;29742;51.540;9.358;2023-03-11T03:11:45;0.00;;;0.00;;
33786;SDS011;29742;51.540;9.358;2023-03-11T03:16:46;0.15;;;0.10;;
33786;SDS011;29742;51.540;9.358;2023-03-11T03:21:46;1.65;;;0.10;;
33786;SDS011;29742;51.540;9.358;2023-03-11T03:26:46;0.10;;;0.10;;
33786;SDS011;29742;51.540;9.358;2023-03-11T03:31:47;0.00;;;0.00;;
33786;SDS011;29742;51.540;9.358;2023-03-11T03:36:47;0.08;;;0.08;;
33786;SDS011;29742;51.540;9.358;2023-03-11T03:41:48;0.65;;;0.10;;
33786;SDS011;29742;51.540;9.358;2023-03-11T03:46:48;0.10;;;0.00;;
33786;SDS011;29742;51.540;9.358;2023-03-11T03:51:48;0.22;;;0.05;;
33786;SDS011;29742;51.540;9.358;2023-03-11T03:56:49;0.05;;;0.03;;
33786;SDS011;29742;51.540;9.358;2023-03-11T04:01:49;0.00;;;0.00;;
33786;SDS011;29742;51.540;9.358;2023-03-11T04:06:49;0.03;;;0.00;;
33786;SDS011;29742;51.540;9.358;2023-03-11T04:11:50;0.63;;;0.10;;
33786;SDS011;29742;51.540;9.358;2023-03-11T04:16:50;0.08;;;0.00;;
33786;SDS011;29742;51.540;9.358;2023-03-11T04:21:50;0.08;;;0.00;;
33786;SDS011;29742;51.540;9.358;2023-03-11T04:26:51;0.00;;;0.00;;
33786;SDS011;29742;51.540;9.358;2023-03-11T04:31:51;0.00;;;0.00;;
33786;SDS011;29742;51.540;9.358;2023-03-11T04:36:52;0.10;;;0.03;;
33786;SDS011;29742;51.540;9.358;2023-03-11T04:41:53;0.10;;;0.10;;
33786;SDS011;29742;51.540;9.358;2023-03-11T04:46:54;0.13;;;0.03;;
33786;SDS011;29742;51.540;9.358;2023-03-11T04:51:54;0.98;;;0.10;;
33786;SDS011;29742;51.540;9.358;2023-03-11T04:56:54;0.10;;;0.00;;
33786;SDS011;29742;51.540;9.358;2023-03-11T05:01:55;0.13;;;0.03;;
33786;SDS011;29742;51.540;9.358;2023-03-11T05:06:55;0.30;;;0.00;;
33786;SDS011;29742;51.540;9.358;2023-03-11T05:11:55;0.00;;;0.00;;
33786;SDS011;29742;51.540;9.358;2023-03-11T05:16:56;0.00;;;0.00;;
33786;SDS011;29742;51.540;9.358;2023-03-11T05:21:57;0.10;;;0.00;;
33786;SDS011;29742;51.540;9.358;2023-03-11T05:26:57;0.10;;;0.10;;
33786;SDS011;29742;51.540;9.358;2023-03-11T05:31:57;0.22;;;0.10;;
33786;SDS011;29742;51.540;9.358;2023-03-11T05:36:58;0.25;;;0.10;;
33786;SDS011;29742;51.540;9.358;2023-03-11T05:41:58;0.17;;;0.03;;
33786;SDS011;29742;51.540;9.358;2023-03-11T05:46:59;0.10;;;0.10;;
33786;SDS011;29742;51.540;9.358;2023-03-11T05:51:59;0.10;;;0.10;;
33786;SDS011;29742;51.540;9.358;2023-03-11T05:57:00;0.15;;;0.03;;
33786;SDS011;29742;51.540;9.358;2023-03-11T06:02:00;0.00;;;0.00;;
33786;SDS011;29742;51.540;9.358;2023-03-11T06:07:01;0.10;;;0.00;;
33786;SDS011;29742;51.540;9.358;2023-03-11T06:12:02;0.00;;;0.00;;
33786;SDS011;29742;51.540;9.358;2023-03-11T06:17:03;0.30;;;0.10;;
33786;SDS011;29742;51.540;9.358;2023-03-11T06:22:04;0.00;;;0.00;;
33786;SDS011;29742;51.540;9.358;2023-03-11T06:27:04;0.10;;;0.08;;
33786;SDS011;29742;51.540;9.358;2023-03-11T06:32:05;0.00;;;0.00;;
33786;SDS011;29742;51.540;9.358;2023-03-11T06:37:05;0.20;;;0.10;;
33786;SDS011;29742;51.540;9.358;2023-03-11T06:42:08;0.00;;;0.00;;
33786;SDS011;29742;51.540;9.358;2023-03-11T06:47:09;0.20;;;0.20;;
33786;SDS011;29742;51.540;9.358;2023-03-11T06:52:09;0.10;;;0.10;;
33786;SDS011;29742;51.540;9.358;2023-03-11T06:57:10;0.28;;;0.10;;
33786;SDS011;29742;51.540;9.358;2023-03-11T07:02:11;0.10;;;0.03;;
33786;SDS011;29742;51.540;9.358;2023-03-11T07:07:12;0.40;;;0.08;;
33786;SDS011;29742;51.540;9.358;2023-03-11T07:12:13;0.08;;;0.00;;
33786;SDS011;29742;51.540;9.358;2023-03-11T07:17:13;0.10;;;0.08;;
33786;SDS011;29742;51.540;9.358;2023-03-11T07:22:14;0.00;;;0.00;;
33786;SDS011;29742;51.540;9.358;2023-03-11T07:27:14;0.10;;;0.00;;
33786;SDS011;29742;51.540;9.358;2023-03-11T07:32:15;0.28;;;0.10;;
33786;SDS011;29742;51.540;9.358;2023-03-11T07:37:15;0.00;;;0.00;;
33786;SDS011;29742;51.540;9.358;2023-03-11T07:42:15;0.20;;;0.10;;
33786;SDS011;29742;51.540;9.358;2023-03-11T07:47:16;0.35;;;0.10;;
33786;SDS011;29742;51.540;9.358;2023-03-11T07:52:16;0.00;;;0.00;;
33786;SDS011;29742;51.540;9.358;2023-03-11T07:57:17;0.45;;;0.17;;
33786;SDS011;29742;51.540;9.358;2023-03-11T08:02:17;0.00;;;0.00;;
33786;SDS011;29742;51.540;9.358;2023-03-11T08:07:17;0.50;;;0.10;;
33786;SDS011;29742;51.540;9.358;2023-03-11T08:12:19;0.03;;;0.00;;
33786;SDS011;29742;51.540;9.358;2023-03-11T08:17:20;0.38;;;0.10;;
33786;SDS011;29742;51.540;9.358;2023-03-11T08:22:20;0.00;;;0.00;;
33786;SDS011;29742;51.540;9.358;2023-03-11T08:27:20;0.00;;;0.00;;
33786;SDS011;29742;51.540;9.358;2023-03-11T08:32:21;0.05;;;0.00;;
33786;SDS011;29742;51.540;9.358;2023-03-11T08:37:21;0.17;;;0.00;;
33786;SDS011;29742;51.540;9.358;2023-03-11T08:42:21;0.08;;;0.00;;
33786;SDS011;29742;51.540;9.358;2023-03-11T08:47:22;0.50;;;0.10;;
33786;SDS011;29742;51.540;9.358;2023-03-11T08:52:22;0.10;;;0.00;;
33786;SDS011;29742;51.540;9.358;2023-03-11T08:57:23;0.13;;;0.10;;
33786;SDS011;29742;51.540;9.358;2023-03-11T09:02:26;0.10;;;0.10;;
33786;SDS011;29742;51.540;9.358;2023-03-11T09:07:26;0.15;;;0.10;;
33786;SDS011;29742;51.540;9.358;2023-03-11T09:12:26;0.40;;;0.10;;
33786;SDS011;29742;51.540;9.358;2023-03-11T09:17:27;0.00;;;0.00;;
33786;SDS011;29742;51.540;9.358;2023-03-11T09:22:27;0.10;;;0.08;;
33786;SDS011;29742;51.540;9.358;2023-03-11T09:27:28;0.20;;;0.00;;
33786;SDS011;29742;51.540;9.358;2023-03-11T09:32:28;0.10;;;0.10;;
33786;SDS011;29742;51.540;9.358;2023-03-11T09:37:29;0.10;;;0.00;;
33786;SDS011;29742;51.540;9.358;2023-03-11T09:48:05;0.13;;;0.10;;
33786;SDS011;29742;51.540;9.358;2023-03-11T09:53:38;0.00;;;0.00;;
33786;SDS011;29742;51.540;9.358;2023-03-11T09:58:45;0.10;;;0.08;;
33786;SDS011;29742;51.540;9.358;2023-03-11T10:03:46;0.47;;;0.10;;
33786;SDS011;29742;51.540;9.358;2023-03-11T10:08:51;0.22;;;0.10;;
33786;SDS011;29742;51.540;9.358;2023-03-11T10:35:43;0.40;;;0.10;;
33786;SDS011;29742;51.540;9.358;2023-03-11T10:40:46;3.20;;;0.40;;
33786;SDS011;29742;51.540;9.358;2023-03-11T10:45:47;0.38;;;0.20;;
33786;SDS011;29742;51.540;9.358;2023-03-11T10:55:58;0.47;;;0.30;;
33786;SDS011;29742;51.540;9.358;2023-03-11T11:01:02;0.20;;;0.10;;
33786;SDS011;29742;51.540;9.358;2023-03-11T11:06:05;0.05;;;0.05;;
33786;SDS011;29742;51.540;9.358;2023-03-11T11:11:10;0.10;;;0.10;;
33786;SDS011;29742;51.540;9.358;2023-03-11T11:16:19;1.75;;;0.25;;
33786;SDS011;29742;51.540;9.358;2023-03-11T11:21:27;0.52;;;0.22;;
33786;SDS011;29742;51.540;9.358;2023-03-11T11:26:38;0.30;;;0.20;;
33786;SDS011;29742;51.540;9.358;2023-03-11T11:31:39;0.50;;;0.20;;
33786;SDS011;29742;51.540;9.358;2023-03-11T11:36:41;0.13;;;0.10;;
33786;SDS011;29742;51.540;9.358;2023-03-11T11:41:41;1.92;;;0.22;;
33786;SDS011;29742;51.540;9.358;2023-03-11T11:46:53;0.05;;;0.05;;
33786;SDS011;29742;51.540;9.358;2023-03-11T11:52:13;0.20;;;0.00;;
33786;SDS011;29742;51.540;9.358;2023-03-11T11:57:16;0.57;;;0.10;;
33786;SDS011;29742;51.540;9.358;2023-03-11T12:02:23;0.10;;;0.00;;
33786;SDS011;29742;51.540;9.358;2023-03-11T12:18:01;0.40;;;0.10;;
33786;SDS011;29742;51.540;9.358;2023-03-11T12:38:37;0.57;;;0.20;;
33786;SDS011;29742;51.540;9.358;2023-03-11T12:48:46;0.85;;;0.10;;
33786;SDS011;29742;51.540;9.358;2023-03-11T12:53:48;0.20;;;0.20;;
33786;SDS011;29742;51.540;9.358;2023-03-11T12:58:59;0.30;;;0.20;;
33786;SDS011;29742;51.540;9.358;2023-03-11T13:04:13;0.08;;;0.08;;
33786;SDS011;29742;51.540;9.358;2023-03-11T13:09:19;1.20;;;0.30;;
33786;SDS011;29742;51.540;9.358;2023-03-11T13:29:45;0.10;;;0.08;;
33786;SDS011;29742;51.540;9.358;2023-03-11T13:40:31;0.20;;;0.05;;
33786;SDS011;29742;51.540;9.358;2023-03-11T13:45:33;0.50;;;0.30;;
33786;SDS011;29742;51.540;9.358;2023-03-11T13:50:35;0.03;;;0.00;;
33786;SDS011;29742;51.540;9.358;2023-03-11T13:55:40;0.13;;;0.10;;
33786;SDS011;29742;51.540;9.358;2023-03-11T14:00:47;0.20;;;0.10;;
33786;SDS011;29742;51.540;9.358;2023-03-11T14:05:49;0.20;;;0.15;;
33786;SDS011;29742;51.540;9.358;2023-03-11T14:11:00;0.10;;;0.05;;
33786;SDS011;29742;51.540;9.358;2023-03-11T14:16:08;0.03;;;0.00;;
33786;SDS011;29742;51.540;9.358;2023-03-11T14:21:19;0.00;;;0.00;;
33786;SDS011;29742;51.540;9.358;2023-03-11T14:26:23;0.60;;;0.10;;
33786;SDS011;29742;51.540;9.358;2023-03-11T14:31:32;0.30;;;0.10;;
33786;SDS011;29742;51.540;9.358;2023-03-11T14:41:42;0.15;;;0.15;;
33786;SDS011;29742;51.540;9.358;2023-03-11T14:46:42;0.38;;;0.22;;
33786;SDS011;29742;51.540;9.358;2023-03-11T14:51:43;0.20;;;0.20;;
33786;SDS011;29742;51.540;9.358;2023-03-11T14:56:45;0.40;;;0.20;;
33786;SDS011;29742;51.540;9.358;2023-03-11T15:01:50;0.20;;;0.10;;
33786;SDS011;29742;51.540;9.358;2023-03-11T15:06:50;0.10;;;0.10;;
33786;SDS011;29742;51.540;9.358;2023-03-11T15:11:55;0.10;;;0.10;;
33786;SDS011;29742;51.540;9.358;2023-03-11T15:17:15;0.17;;;0.10;;
33786;SDS011;29742;51.540;9.358;2023-03-11T15:27:39;0.20;;;0.20;;
33786;SDS011;29742;51.540;9.358;2023-03-11T15:32:42;0.00;;;0.00;;
33786;SDS011;29742;51.540;9.358;2023-03-11T15:37:43;0.33;;;0.17;;
33786;SDS011;29742;51.540;9.358;2023-03-11T15:42:44;0.45;;;0.00;;
33786;SDS011;29742;51.540;9.358;2023-03-11T15:47:46;0.00;;;0.00;;
33786;SDS011;29742;51.540;9.358;2023-03-11T15:52:48;0.00;;;0.00;;
33786;SDS011;29742;51.540;9.358;2023-03-11T15:57:49;2.05;;;0.10;;
33786;SDS011;29742;51.540;9.358;2023-03-11T16:02:57;0.10;;;0.10;;
33786;SDS011;29742;51.540;9.358;2023-03-11T16:07:57;0.10;;;0.00;;
33786;SDS011;29742;51.540;9.358;2023-03-11T16:12:58;0.05;;;0.03;;
33786;SDS011;29742;51.540;9.358;2023-03-11T16:17:59;0.08;;;0.00;;
33786;SDS011;29742;51.540;9.358;2023-03-11T16:23:01;0.00;;;0.00;;
33786;SDS011;29742;51.540;9.358;2023-03-11T16:28:01;0.00;;;0.00;;
33786;SDS011;29742;51.540;9.358;2023-03-11T16:33:02;0.00;;;0.00;;
33786;SDS011;29742;51.540;9.358;2023-03-11T16:38:02;0.40;;;0.13;;
33786;SDS011;29742;51.540;9.358;2023-03-11T16:43:04;0.10;;;0.10;;
33786;SDS011;29742;51.540;9.358;2023-03-11T16:48:06;0.20;;;0.08;;
33786;SDS011;29742;51.540;9.358;2023-03-11T16:53:07;0.10;;;0.00;;
33786;SDS011;29742;51.540;9.358;2023-03-11T16:58:07;0.00;;;0.00;;
33786;SDS011;29742;51.540;9.358;2023-03-11T17:03:11;0.10;;;0.00;;
33786;SDS011;29742;51.540;9.358;2023-03-11T17:08:15;0.00;;;0.00;;
33786;SDS011;29742;51.540;9.358;2023-03-11T17:13:17;0.30;;;0.00;;
33786;SDS011;29742;51.540;9.358;2023-03-11T17:18:17;0.10;;;0.10;;
33786;SDS011;29742;51.540;9.358;2023-03-11T17:23:17;0.17;;;0.10;;
33786;SDS011;29742;51.540;9.358;2023-03-11T17:28:18;0.00;;;0.00;;
33786;SDS011;29742;51.540;9.358;2023-03-11T17:33:18;1.15;;;0.10;;
33786;SDS011;29742;51.540;9.358;2023-03-11T17:38:19;0.60;;;0.30;;
33786;SDS011;29742;51.540;9.358;2023-03-11T17:43:19;0.32;;;0.10;;
33786;SDS011;29742;51.540;9.358;2023-03-11T17:48:19;0.05;;;0.00;;
33786;SDS011;29742;51.540;9.358;2023-03-11T17:53:20;0.10;;;0.10;;
33786;SDS011;29742;51.540;9.358;2023-03-11T17:58:20;0.10;;;0.10;;
33786;SDS011;29742;51.540;9.358;2023-03-11T18:03:21;0.17;;;0.10;;
33786;SDS011;29742;51.540;9.358;2023-03-11T18:08:21;0.30;;;0.13;;
33786;SDS011;29742;51.540;9.358;2023-03-11T18:13:21;0.47;;;0.20;;
33786;SDS011;29742;51.540;9.358;2023-03-11T18:18:22;0.13;;;0.13;;
33786;SDS011;29742;51.540;9.358;2023-03-11T18:23:22;0.32;;;0.10;;
33786;SDS011;29742;51.540;9.358;2023-03-11T18:28:22;0.30;;;0.13;;
33786;SDS011;29742;51.540;9.358;2023-03-11T18:33:23;0.20;;;0.20;;
33786;SDS011;29742;51.540;9.358;2023-03-11T18:38:23;0.55;;;0.20;;
33786;SDS011;29742;51.540;9.358;2023-03-11T18:43:24;0.32;;;0.10;;
33786;SDS011;29742;51.540;9.358;2023-03-11T18:48:24;0.63;;;0.17;;
33786;SDS011;29742;51.540;9.358;2023-03-11T18:53:25;0.50;;;0.20;;
33786;SDS011;29742;51.540;9.358;2023-03-11T18:58:25;0.30;;;0.20;;
33786;SDS011;29742;51.540;9.358;2023-03-11T19:03:26;0.35;;;0.30;;
33786;SDS011;29742;51.540;9.358;2023-03-11T19:08:26;0.30;;;0.20;;
33786;SDS011;29742;51.540;9.358;2023-03-11T19:13:27;0.10;;;0.10;;
33786;SDS011;29742;51.540;9.358;2023-03-11T19:18:27;0.32;;;0.20;;
33786;SDS011;29742;51.540;9.358;2023-03-11T19:23:28;0.40;;;0.30;;
33786;SDS011;29742;51.540;9.358;2023-03-11T19:28:28;0.52;;;0.43;;
33786;SDS011;29742;51.540;9.358;2023-03-11T19:33:28;0.35;;;0.20;;
33786;SDS011;29742;51.540;9.358;2023-03-11T19:38:29;0.82;;;0.47;;
33786;SDS011;29742;51.540;9.358;2023-03-11T19:43:30;0.30;;;0.30;;
33786;SDS011;29742;51.540;9.358;2023-03-11T19:48:31;0.30;;;0.30;;
33786;SDS011;29742;51.540;9.358;2023-03-11T19:53:32;0.55;;;0.40;;
33786;SDS011;29742;51.540;9.358;2023-03-11T19:58:34;0.20;;;0.20;;
33786;SDS011;29742;51.540;9.358;2023-03-11T20:03:34;0.35;;;0.30;;
33786;SDS011;29742;51.540;9.358;2023-03-11T20:08:35;1.88;;;0.20;;
33786;SDS011;29742;51.540;9.358;2023-03-11T20:13:36;0.40;;;0.32;;
33786;SDS011;29742;51.540;9.358;2023-03-11T20:18:37;0.45;;;0.35;;
33786;SDS011;29742;51.540;9.358;2023-03-11T20:23:38;0.22;;;0.20;;
33786;SDS011;29742;51.540;9.358;2023-03-11T20:28:38;0.30;;;0.30;;
33786;SDS011;29742;51.540;9.358;2023-03-11T20:33:39;0.35;;;0.20;;
33786;SDS011;29742;51.540;9.358;2023-03-11T20:38:40;0.45;;;0.30;;
33786;SDS011;29742;51.540;9.358;2023-03-11T20:43:40;0.50;;;0.30;;
33786;SDS011;29742;51.540;9.358;2023-03-11T20:48:41;0.50;;;0.30;;
33786;SDS011;29742;51.540;9.358;2023-03-11T20:53:41;0.52;;;0.38;;
33786;SDS011;29742;51.540;9.358;2023-03-11T20:58:42;0.38;;;0.25;;
33786;SDS011;29742;51.540;9.358;2023-03-11T21:03:44;0.45;;;0.38;;
33786;SDS011;29742;51.540;9.358;2023-03-11T21:08:45;0.30;;;0.30;;
33786;SDS011;29742;51.540;9.358;2023-03-11T21:13:46;0.47;;;0.35;;
33786;SDS011;29742;51.540;9.358;2023-03-11T21:18:46;0.55;;;0.30;;
33786;SDS011;29742;51.540;9.358;2023-03-11T21:23:47;0.57;;;0.30;;
33786;SDS011;29742;51.540;9.358;2023-03-11T21:28:47;0.40;;;0.28;;
33786;SDS011;29742;51.540;9.358;2023-03-11T21:33:51;0.70;;;0.30;;
33786;SDS011;29742;51.540;9.358;2023-03-11T21:38:52;0.67;;;0.40;;
33786;SDS011;29742;51.540;9.358;2023-03-11T21:43:53;0.28;;;0.28;;
33786;SDS011;29742;51.540;9.358;2023-03-11T21:48:54;0.22;;;0.22;;
33786;SDS011;29742;51.540;9.358;2023-03-11T21:53:54;0.30;;;0.30;;
33786;SDS011;29742;51.540;9.358;2023-03-11T21:58:55;0.30;;;0.30;;
33786;SDS011;29742;51.540;9.358;2023-03-11T22:03:55;0.55;;;0.45;;
33786;SDS011;29742;51.540;9.358;2023-03-11T22:08:56;0.30;;;0.30;;
33786;SDS011;29742;51.540;9.358;2023-03-11T22:13:56;0.43;;;0.30;;
33786;SDS011;29742;51.540;9.358;2023-03-11T22:18:59;0.25;;;0.20;;
33786;SDS011;29742;51.540;9.358;2023-03-11T22:23:59;0.20;;;0.20;;
33786;SDS011;29742;51.540;9.358;2023-03-11T22:29:00;0.40;;;0.40;;
33786;SDS011;29742;51.540;9.358;2023-03-11T22:34:00;1.30;;;0.22;;
33786;SDS011;29742;51.540;9.358;2023-03-11T22:39:01;0.20;;;0.20;;
33786;SDS011;29742;51.540;9.358;2023-03-11T22:44:03;0.32;;;0.30;;
33786;SDS011;29742;51.540;9.358;2023-03-11T22:49:03;1.05;;;0.40;;
33786;SDS011;29742;51.540;9.358;2023-03-11T22:54:04;0.32;;;0.32;;
33786;SDS011;29742;51.540;9.358;2023-03-11T22:59:04;0.57;;;0.20;;
33786;SDS011;29742;51.540;9.358;2023-03-11T23:04:04;0.30;;;0.30;;
33786;SDS011;29742;51.540;9.358;2023-03-11T23:09:05;0.68;;;0.35;;
33786;SDS011;29742;51.540;9.358;2023-03-11T23:14:05;0.57;;;0.30;;
33786;SDS011;29742;51.540;9.358;2023-03-11T23:19:05;0.60;;;0.30;;
33786;SDS011;29742;51.540;9.358;2023-03-11T23:24:06;0.30;;;0.30;;
33786;SDS011;29742;51.540;9.358;2023-03-11T23:29:09;0.50;;;0.40;;
33786;SDS011;29742;51.540;9.358;2023-03-11T23:34:09;0.40;;;0.30;;
33786;SDS011;29742;51.540;9.358;2023-03-11T23:39:09;0.50;;;0.30;;
33786;SDS011;29742;51.540;9.358;2023-03-11T23:44:10;0.70;;;0.40;;
33786;SDS011;29742;51.540;9.358;2023-03-11T23:49:13;0.52;;;0.30;;
33786;SDS011;29742;51.540;9.358;2023-03-11T23:54:13;0.40;;;0.40;;
33786;SDS011;29742;51.540;9.358;2023-03-11T23:59:14;0.30;;;0.30;;
